Takatori — JL6597 — position and weather

sailwx.info

Track history (hours):
 
Tides and Currents Weather Stations Pressure Air Temp Water Temp Dewpoint Dewpoint Depression Visibility Wind Speed Wind Dir Waves Ship Positions

Takatori

Last reported at 2018-Jul-17 03:52 UTC. Time now 2018-Jul-17 04:12 UTC.
Position N 34°41' E 135°12'.

Length 74 m; draft 4 m.

Type: Cargo ship. MMSI: 431501607.

Date/timePositionNaut miles runAvg speedWind from/ knotsBaromVisibWave heightAir tempDewpointWater temp
2018-Jul-17 03:52N 34°41' E 135°12'0 0.0
2018-Jul-17 03:28N 34°41' E 135°12'0 0.0
2018-Jul-17 02:58N 34°41' E 135°12'0 0.0
2018-Jul-17 02:28N 34°41' E 135°12'0 0.0
2018-Jul-17 01:58N 34°41' E 135°12'0 0.0
2018-Jul-17 01:28N 34°41' E 135°12'0 0.0
2018-Jul-17 00:58N 34°41' E 135°12'0 0.0
2018-Jul-17 00:28N 34°41' E 135°12'0 0.0
2018-Jul-16 23:22N 34°41' E 135°12'0 0.0
2018-Jul-16 22:58N 34°41' E 135°12'0 0.0
2018-Jul-16 22:28N 34°41' E 135°12'0 0.0
2018-Jul-16 21:58N 34°41' E 135°12'0 0.0
2018-Jul-16 21:28N 34°41' E 135°12'0 0.0
2018-Jul-16 20:58N 34°41' E 135°12'0 0.0
2018-Jul-16 20:28N 34°41' E 135°12'0 0.0
2018-Jul-16 19:58N 34°41' E 135°12'0 0.0
2018-Jul-16 19:28N 34°41' E 135°12'0 0.0
2018-Jul-16 18:46N 34°41' E 135°12'0 0.0
2018-Jul-16 18:28N 34°41' E 135°12'0 0.0
2018-Jul-16 17:58N 34°41' E 135°12'0 0.0
2018-Jul-16 17:28N 34°41' E 135°12'0 0.0
2018-Jul-16 16:58N 34°41' E 135°12'0 0.0
2018-Jul-16 16:28N 34°41' E 135°12'0 0.0
2018-Jul-16 15:52N 34°41' E 135°12'0 0.0
2018-Jul-16 15:28N 34°41' E 135°12'0 0.0
2018-Jul-16 14:58N 34°41' E 135°12'0 0.0
2018-Jul-16 14:28N 34°41' E 135°12'0 0.0
2018-Jul-16 13:58N 34°41' E 135°12'0 0.0
2018-Jul-16 13:28N 34°41' E 135°12'0 0.0
2018-Jul-16 12:58N 34°41' E 135°12'0 0.0
2018-Jul-16 12:28N 34°41' E 135°12'0 0.0
2018-Jul-16 11:58N 34°41' E 135°12'0 0.0
2018-Jul-16 11:28N 34°41' E 135°12'0 0.0
2018-Jul-16 10:58N 34°41' E 135°12'0 0.0
2018-Jul-16 10:28N 34°41' E 135°12'0 0.0
2018-Jul-16 09:58N 34°41' E 135°12'0 0.0
2018-Jul-16 09:22N 34°41' E 135°12'0 0.0
2018-Jul-16 08:58N 34°41' E 135°12'0 0.0
2018-Jul-16 08:28N 34°41' E 135°12'0 0.0
2018-Jul-16 07:58N 34°41' E 135°12'0 0.0
2018-Jul-16 07:28N 34°41' E 135°12'0 0.0
2018-Jul-16 06:58N 34°41' E 135°12'0 0.0
2018-Jul-16 06:16N 34°41' E 135°12'0 0.0
2018-Jul-16 05:58N 34°41' E 135°12'4 7.4
2018-Jul-16 05:30N 34°41' E 135°17'0 0.9
2018-Jul-16 05:00N 34°41' E 135°16'0 0.7
2018-Jul-16 04:26N 34°41' E 135°16'0 0.1
2018-Jul-16 03:50N 34°41' E 135°16'0 0.1
2018-Jul-16 03:26N 34°40' E 135°16'0 0.0
2018-Jul-16 02:44N 34°40' E 135°16'0 0.0
2018-Jul-16 02:08N 34°40' E 135°16'0 0.1
2018-Jul-16 02:00N 34°40' E 135°16'2 3.2
2018-Jul-16 01:29N 34°39' E 135°15'1 1.3
2018-Jul-16 00:58N 34°39' E 135°15'0 0.1
2018-Jul-16 00:00N 34°39' E 135°15'5 9.7
2018-Jul-15 23:30N 34°39' E 135°21'3 5.7
2018-Jul-15 22:55N 34°38' E 135°25'0 0.0
2018-Jul-15 22:25N 34°38' E 135°25'2 5.0
2018-Jul-15 22:00N 34°37' E 135°23'510.1
2018-Jul-15 21:28N 34°37' E 135°16'4 9.2
2018-Jul-15 21:00N 34°39' E 135°11'2 2.9
2018-Jul-15 20:16N 34°41' E 135°12'0 0.0
2018-Jul-15 19:52N 34°41' E 135°12'0 0.0
2018-Jul-15 19:10N 34°41' E 135°12'0 0.0
2018-Jul-15 18:58N 34°41' E 135°12'0 0.0
2018-Jul-15 18:22N 34°41' E 135°12'0 0.0
2018-Jul-15 17:52N 34°41' E 135°12'0 0.0
2018-Jul-15 17:28N 34°41' E 135°12'0 0.0
2018-Jul-15 16:52N 34°41' E 135°12'0 0.0
2018-Jul-15 16:16N 34°41' E 135°12'0 0.0
2018-Jul-15 15:58N 34°41' E 135°12'0 0.0
2018-Jul-15 15:28N 34°41' E 135°12'0 0.0
2018-Jul-15 14:58N 34°41' E 135°12'0 0.0
2018-Jul-15 14:16N 34°41' E 135°12'0 0.0
2018-Jul-15 13:46N 34°41' E 135°12'0 0.0
2018-Jul-15 13:28N 34°41' E 135°12'0 0.0
2018-Jul-15 12:52N 34°41' E 135°12'0 0.0
2018-Jul-15 12:28N 34°41' E 135°12'0 0.0
2018-Jul-15 11:58N 34°41' E 135°12'0 0.0
2018-Jul-15 11:28N 34°41' E 135°12'0 0.0
2018-Jul-15 10:58N 34°41' E 135°12'0 0.0
2018-Jul-15 10:28N 34°41' E 135°12'0 0.0
2018-Jul-15 09:52N 34°41' E 135°12'0 0.0
2018-Jul-15 09:16N 34°41' E 135°12'0 0.0
2018-Jul-15 08:58N 34°41' E 135°12'0 0.0
2018-Jul-15 08:28N 34°41' E 135°12'0 0.0
2018-Jul-15 07:58N 34°41' E 135°12'0 0.0
2018-Jul-15 07:28N 34°41' E 135°12'0 0.0
2018-Jul-15 06:58N 34°41' E 135°12'0 0.0
2018-Jul-15 06:28N 34°41' E 135°12'0 0.0
2018-Jul-15 05:58N 34°41' E 135°12'0 0.0
2018-Jul-15 05:28N 34°41' E 135°12'0 0.0
2018-Jul-15 04:58N 34°41' E 135°12'0 0.0
2018-Jul-15 04:28N 34°41' E 135°12'0 0.0
2018-Jul-15 03:52N 34°41' E 135°12'0 0.0
2018-Jul-15 03:28N 34°41' E 135°12'0 0.0
2018-Jul-15 02:58N 34°41' E 135°12'0 0.0
2018-Jul-15 02:28N 34°41' E 135°12'0 0.0
2018-Jul-15 01:58N 34°41' E 135°12'0 0.0
2018-Jul-15 01:28N 34°41' E 135°12'0 0.0
2018-Jul-15 00:52N 34°41' E 135°12'0 0.0
2018-Jul-15 00:28N 34°41' E 135°12'0 0.0
2018-Jul-14 23:58N 34°41' E 135°12'0 0.0
2018-Jul-14 23:28N 34°41' E 135°12'0 0.0
2018-Jul-14 22:58N 34°41' E 135°12'0 0.0
2018-Jul-14 22:28N 34°41' E 135°12'0 0.0
2018-Jul-14 21:52N 34°41' E 135°12'0 0.0
2018-Jul-14 21:16N 34°41' E 135°12'0 0.0
2018-Jul-14 20:52N 34°41' E 135°12'0 0.0
2018-Jul-14 20:28N 34°41' E 135°12'3 5.9
2018-Jul-14 19:58N 34°38' E 135°11'511.7
2018-Jul-14 19:30N 34°35' E 135°06'1811.9
2018-Jul-14 18:01N 34°31' E 134°45'0 9.9
2018-Jul-14 18:00N 34°31' E 134°44'611.1
2018-Jul-14 17:29N 34°29' E 134°38'611.8
2018-Jul-14 17:00N 34°27' E 134°31'28 0.7
2018-Jul-13 02:55N 34°36' E 135°03'4 9.1
2018-Jul-13 02:30N 34°37' E 135°08'510.7
2018-Jul-13 02:00N 34°38' E 135°14'4 7.1
2018-Jul-13 01:30N 34°41' E 135°17'0 0.0
2018-Jul-13 00:39N 34°41' E 135°17'0 1.5
2018-Jul-13 00:30N 34°41' E 135°16'1 2.3
2018-Jul-12 23:59N 34°40' E 135°15'1 2.3
2018-Jul-12 23:30N 34°39' E 135°15'0 0.9
2018-Jul-12 23:00N 34°39' E 135°15'1 1.0
2018-Jul-12 22:27N 34°38' E 135°15'0 0.0
2018-Jul-12 21:57N 34°38' E 135°15'0 0.0
2018-Jul-12 21:27N 34°38' E 135°15'0 0.1
2018-Jul-12 20:57N 34°38' E 135°15'0 0.1
2018-Jul-12 20:21N 34°38' E 135°15'0 0.2
2018-Jul-12 19:57N 34°38' E 135°15'2 3.6
2018-Jul-12 19:30N 34°37' E 135°13'611.3
2018-Jul-12 18:58N 34°35' E 135°07'1911.9
2018-Jul-12 17:25N 34°32' E 134°45'711.4
2018-Jul-12 16:46N 34°29' E 134°36'311.5
2018-Jul-12 16:30N 34°28' E 134°33'27 0.7
2018-Jul-11 03:38N 34°36' E 135°04'310.1
2018-Jul-11 03:20N 34°37' E 135°07'410.8
2018-Jul-11 02:58N 34°37' E 135°12'3 5.4
2018-Jul-11 02:27N 34°39' E 135°15'0 0.0
2018-Jul-11 02:00N 34°39' E 135°15'1 2.0
2018-Jul-11 01:28N 34°40' E 135°15'1 2.9
2018-Jul-11 00:58N 34°41' E 135°17'0 0.0
2018-Jul-11 00:23N 34°41' E 135°17'0 0.0
2018-Jul-10 23:59N 34°41' E 135°17'0 0.0
2018-Jul-10 23:30N 34°41' E 135°17'0 0.7
2018-Jul-10 22:58N 34°41' E 135°16'0 0.0
2018-Jul-10 22:30N 34°41' E 135°16'0 0.0
2018-Jul-10 22:00N 34°41' E 135°16'0 0.0
2018-Jul-10 21:28N 34°41' E 135°16'1 2.4
2018-Jul-10 21:00N 34°40' E 135°15'5 9.1
2018-Jul-10 20:29N 34°37' E 135°11'510.7
2018-Jul-10 20:00N 34°35' E 135°05'25 9.9
2018-Jul-10 17:29N 34°28' E 134°36'27 0.8
2018-Jul-09 06:44N 34°37' E 135°07'311.1
2018-Jul-09 06:30N 34°37' E 135°10'5 9.6
2018-Jul-09 06:00N 34°39' E 135°15'2 3.9
2018-Jul-09 05:30N 34°41' E 135°17'0 0.5
2018-Jul-09 04:42N 34°41' E 135°16'0 0.0
2018-Jul-09 04:28N 34°41' E 135°16'0 0.0
2018-Jul-09 03:57N 34°41' E 135°16'0 0.0
2018-Jul-09 03:28N 34°41' E 135°16'0 0.1
2018-Jul-09 02:53N 34°41' E 135°16'0 0.5
2018-Jul-09 02:30N 34°41' E 135°16'2 3.6
2018-Jul-09 02:00N 34°39' E 135°15'0 0.0
2018-Jul-09 01:30N 34°39' E 135°15'1 2.0
2018-Jul-09 00:58N 34°40' E 135°15'2 2.6
2018-Jul-09 00:20N 34°41' E 135°17'0 0.6
2018-Jul-08 23:56N 34°41' E 135°17'2 3.6
2018-Jul-08 23:30N 34°40' E 135°15'3 6.3
2018-Jul-08 22:58N 34°38' E 135°12'3 5.5
2018-Jul-08 22:29N 34°40' E 135°11'0 0.0
2018-Jul-08 21:53N 34°40' E 135°11'0 0.0
2018-Jul-08 21:29N 34°40' E 135°11'0 0.0
2018-Jul-08 20:59N 34°40' E 135°11'0 0.0
2018-Jul-08 20:29N 34°40' E 135°11'0 0.0
2018-Jul-08 19:59N 34°40' E 135°11'0 0.0
2018-Jul-08 19:29N 34°40' E 135°11'0 0.0
2018-Jul-08 18:59N 34°40' E 135°11'0 0.0
2018-Jul-08 18:29N 34°40' E 135°11'0 0.0
2018-Jul-08 17:59N 34°40' E 135°11'0 0.0
2018-Jul-08 17:23N 34°40' E 135°11'0 0.0
2018-Jul-08 16:59N 34°40' E 135°11'0 0.0
2018-Jul-08 16:23N 34°40' E 135°11'0 0.0
2018-Jul-08 15:59N 34°40' E 135°11'0 0.0
2018-Jul-08 15:29N 34°40' E 135°11'0 0.0
2018-Jul-08 14:59N 34°40' E 135°11'0 0.0
2018-Jul-08 14:29N 34°40' E 135°11'0 0.0
2018-Jul-08 13:53N 34°40' E 135°11'0 0.0
2018-Jul-08 13:29N 34°40' E 135°11'0 0.0
2018-Jul-08 12:59N 34°40' E 135°11'0 0.0
2018-Jul-08 12:23N 34°40' E 135°11'0 0.0
2018-Jul-08 11:59N 34°40' E 135°11'0 0.0
2018-Jul-08 11:29N 34°40' E 135°11'0 0.0
2018-Jul-08 10:59N 34°40' E 135°11'0 0.0
2018-Jul-08 10:29N 34°40' E 135°11'0 0.0
2018-Jul-08 09:59N 34°40' E 135°11'0 0.0
2018-Jul-08 09:29N 34°40' E 135°11'0 0.0
2018-Jul-08 08:59N 34°40' E 135°11'0 0.0
2018-Jul-08 08:29N 34°40' E 135°11'0 0.0
2018-Jul-08 07:59N 34°40' E 135°11'0 0.0
2018-Jul-08 07:29N 34°40' E 135°11'0 0.0
2018-Jul-08 06:59N 34°40' E 135°11'0 0.9
2018-Jul-08 06:27N 34°39' E 135°11'510.3
2018-Jul-08 05:59N 34°36' E 135°08'4 8.9
2018-Jul-08 05:30N 34°36' E 135°02'13 9.4
2018-Jul-08 04:05N 34°31' E 134°47'211.5
2018-Jul-08 03:56N 34°31' E 134°45'  
Track history (hours):
 
Tides and Currents Weather Stations Pressure Air Temp Water Temp Dewpoint Dewpoint Depression Visibility Wind Speed Wind Dir Waves Ship Positions

Takatori

Last reported at 2018-Jul-17 03:52 UTC. Time now 2018-Jul-17 04:12 UTC.
Position N 34°41' E 135°12'.

Length 74 m; draft 4 m.

Type: Cargo ship. MMSI: 431501607.

Date/timePositionNaut miles runAvg speedWind from/ knotsBaromVisibWave heightAir tempDewpointWater temp
2018-Jul-17 03:52N 34°41' E 135°12'0 0.0
2018-Jul-17 03:28N 34°41' E 135°12'0 0.0
2018-Jul-17 02:58N 34°41' E 135°12'0 0.0
2018-Jul-17 02:28N 34°41' E 135°12'0 0.0
2018-Jul-17 01:58N 34°41' E 135°12'0 0.0
2018-Jul-17 01:28N 34°41' E 135°12'0 0.0
2018-Jul-17 00:58N 34°41' E 135°12'0 0.0
2018-Jul-17 00:28N 34°41' E 135°12'0 0.0
2018-Jul-16 23:22N 34°41' E 135°12'0 0.0
2018-Jul-16 22:58N 34°41' E 135°12'0 0.0
2018-Jul-16 22:28N 34°41' E 135°12'0 0.0
2018-Jul-16 21:58N 34°41' E 135°12'0 0.0
2018-Jul-16 21:28N 34°41' E 135°12'0 0.0
2018-Jul-16 20:58N 34°41' E 135°12'0 0.0
2018-Jul-16 20:28N 34°41' E 135°12'0 0.0
2018-Jul-16 19:58N 34°41' E 135°12'0 0.0
2018-Jul-16 19:28N 34°41' E 135°12'0 0.0
2018-Jul-16 18:46N 34°41' E 135°12'0 0.0
2018-Jul-16 18:28N 34°41' E 135°12'0 0.0
2018-Jul-16 17:58N 34°41' E 135°12'0 0.0
2018-Jul-16 17:28N 34°41' E 135°12'0 0.0
2018-Jul-16 16:58N 34°41' E 135°12'0 0.0
2018-Jul-16 16:28N 34°41' E 135°12'0 0.0
2018-Jul-16 15:52N 34°41' E 135°12'0 0.0
2018-Jul-16 15:28N 34°41' E 135°12'0 0.0
2018-Jul-16 14:58N 34°41' E 135°12'0 0.0
2018-Jul-16 14:28N 34°41' E 135°12'0 0.0
2018-Jul-16 13:58N 34°41' E 135°12'0 0.0
2018-Jul-16 13:28N 34°41' E 135°12'0 0.0
2018-Jul-16 12:58N 34°41' E 135°12'0 0.0
2018-Jul-16 12:28N 34°41' E 135°12'0 0.0
2018-Jul-16 11:58N 34°41' E 135°12'0 0.0
2018-Jul-16 11:28N 34°41' E 135°12'0 0.0
2018-Jul-16 10:58N 34°41' E 135°12'0 0.0
2018-Jul-16 10:28N 34°41' E 135°12'0 0.0
2018-Jul-16 09:58N 34°41' E 135°12'0 0.0
2018-Jul-16 09:22N 34°41' E 135°12'0 0.0
2018-Jul-16 08:58N 34°41' E 135°12'0 0.0
2018-Jul-16 08:28N 34°41' E 135°12'0 0.0
2018-Jul-16 07:58N 34°41' E 135°12'0 0.0
2018-Jul-16 07:28N 34°41' E 135°12'0 0.0
2018-Jul-16 06:58N 34°41' E 135°12'0 0.0
2018-Jul-16 06:16N 34°41' E 135°12'0 0.0
2018-Jul-16 05:58N 34°41' E 135°12'4 7.4
2018-Jul-16 05:30N 34°41' E 135°17'0 0.9
2018-Jul-16 05:00N 34°41' E 135°16'0 0.7
2018-Jul-16 04:26N 34°41' E 135°16'0 0.1
2018-Jul-16 03:50N 34°41' E 135°16'0 0.1
2018-Jul-16 03:26N 34°40' E 135°16'0 0.0
2018-Jul-16 02:44N 34°40' E 135°16'0 0.0
2018-Jul-16 02:08N 34°40' E 135°16'0 0.1
2018-Jul-16 02:00N 34°40' E 135°16'2 3.2
2018-Jul-16 01:29N 34°39' E 135°15'1 1.3
2018-Jul-16 00:58N 34°39' E 135°15'0 0.1
2018-Jul-16 00:00N 34°39' E 135°15'5 9.7
2018-Jul-15 23:30N 34°39' E 135°21'3 5.7
2018-Jul-15 22:55N 34°38' E 135°25'0 0.0
2018-Jul-15 22:25N 34°38' E 135°25'2 5.0
2018-Jul-15 22:00N 34°37' E 135°23'510.1
2018-Jul-15 21:28N 34°37' E 135°16'4 9.2
2018-Jul-15 21:00N 34°39' E 135°11'2 2.9
2018-Jul-15 20:16N 34°41' E 135°12'0 0.0
2018-Jul-15 19:52N 34°41' E 135°12'0 0.0
2018-Jul-15 19:10N 34°41' E 135°12'0 0.0
2018-Jul-15 18:58N 34°41' E 135°12'0 0.0
2018-Jul-15 18:22N 34°41' E 135°12'0 0.0
2018-Jul-15 17:52N 34°41' E 135°12'0 0.0
2018-Jul-15 17:28N 34°41' E 135°12'0 0.0
2018-Jul-15 16:52N 34°41' E 135°12'0 0.0
2018-Jul-15 16:16N 34°41' E 135°12'0 0.0
2018-Jul-15 15:58N 34°41' E 135°12'0 0.0
2018-Jul-15 15:28N 34°41' E 135°12'0 0.0
2018-Jul-15 14:58N 34°41' E 135°12'0 0.0
2018-Jul-15 14:16N 34°41' E 135°12'0 0.0
2018-Jul-15 13:46N 34°41' E 135°12'0 0.0
2018-Jul-15 13:28N 34°41' E 135°12'0 0.0
2018-Jul-15 12:52N 34°41' E 135°12'0 0.0
2018-Jul-15 12:28N 34°41' E 135°12'0 0.0
2018-Jul-15 11:58N 34°41' E 135°12'0 0.0
2018-Jul-15 11:28N 34°41' E 135°12'0 0.0
2018-Jul-15 10:58N 34°41' E 135°12'0 0.0
2018-Jul-15 10:28N 34°41' E 135°12'0 0.0
2018-Jul-15 09:52N 34°41' E 135°12'0 0.0
2018-Jul-15 09:16N 34°41' E 135°12'0 0.0
2018-Jul-15 08:58N 34°41' E 135°12'0 0.0
2018-Jul-15 08:28N 34°41' E 135°12'0 0.0
2018-Jul-15 07:58N 34°41' E 135°12'0 0.0
2018-Jul-15 07:28N 34°41' E 135°12'0 0.0
2018-Jul-15 06:58N 34°41' E 135°12'0 0.0
2018-Jul-15 06:28N 34°41' E 135°12'0 0.0
2018-Jul-15 05:58N 34°41' E 135°12'0 0.0
2018-Jul-15 05:28N 34°41' E 135°12'0 0.0
2018-Jul-15 04:58N 34°41' E 135°12'0 0.0
2018-Jul-15 04:28N 34°41' E 135°12'0 0.0
2018-Jul-15 03:52N 34°41' E 135°12'0 0.0
2018-Jul-15 03:28N 34°41' E 135°12'0 0.0
2018-Jul-15 02:58N 34°41' E 135°12'0 0.0
2018-Jul-15 02:28N 34°41' E 135°12'0 0.0
2018-Jul-15 01:58N 34°41' E 135°12'0 0.0
2018-Jul-15 01:28N 34°41' E 135°12'0 0.0
2018-Jul-15 00:52N 34°41' E 135°12'0 0.0
2018-Jul-15 00:28N 34°41' E 135°12'0 0.0
2018-Jul-14 23:58N 34°41' E 135°12'0 0.0
2018-Jul-14 23:28N 34°41' E 135°12'0 0.0
2018-Jul-14 22:58N 34°41' E 135°12'0 0.0
2018-Jul-14 22:28N 34°41' E 135°12'0 0.0
2018-Jul-14 21:52N 34°41' E 135°12'0 0.0
2018-Jul-14 21:16N 34°41' E 135°12'0 0.0
2018-Jul-14 20:52N 34°41' E 135°12'0 0.0
2018-Jul-14 20:28N 34°41' E 135°12'3 5.9
2018-Jul-14 19:58N 34°38' E 135°11'511.7
2018-Jul-14 19:30N 34°35' E 135°06'1811.9
2018-Jul-14 18:01N 34°31' E 134°45'0 9.9
2018-Jul-14 18:00N 34°31' E 134°44'611.1
2018-Jul-14 17:29N 34°29' E 134°38'611.8
2018-Jul-14 17:00N 34°27' E 134°31'28 0.7
2018-Jul-13 02:55N 34°36' E 135°03'4 9.1
2018-Jul-13 02:30N 34°37' E 135°08'510.7
2018-Jul-13 02:00N 34°38' E 135°14'4 7.1
2018-Jul-13 01:30N 34°41' E 135°17'0 0.0
2018-Jul-13 00:39N 34°41' E 135°17'0 1.5
2018-Jul-13 00:30N 34°41' E 135°16'1 2.3
2018-Jul-12 23:59N 34°40' E 135°15'1 2.3
2018-Jul-12 23:30N 34°39' E 135°15'0 0.9
2018-Jul-12 23:00N 34°39' E 135°15'1 1.0
2018-Jul-12 22:27N 34°38' E 135°15'0 0.0
2018-Jul-12 21:57N 34°38' E 135°15'0 0.0
2018-Jul-12 21:27N 34°38' E 135°15'0 0.1
2018-Jul-12 20:57N 34°38' E 135°15'0 0.1
2018-Jul-12 20:21N 34°38' E 135°15'0 0.2
2018-Jul-12 19:57N 34°38' E 135°15'2 3.6
2018-Jul-12 19:30N 34°37' E 135°13'611.3
2018-Jul-12 18:58N 34°35' E 135°07'1911.9
2018-Jul-12 17:25N 34°32' E 134°45'711.4
2018-Jul-12 16:46N 34°29' E 134°36'311.5
2018-Jul-12 16:30N 34°28' E 134°33'27 0.7
2018-Jul-11 03:38N 34°36' E 135°04'310.1
2018-Jul-11 03:20N 34°37' E 135°07'410.8
2018-Jul-11 02:58N 34°37' E 135°12'3 5.4
2018-Jul-11 02:27N 34°39' E 135°15'0 0.0
2018-Jul-11 02:00N 34°39' E 135°15'1 2.0
2018-Jul-11 01:28N 34°40' E 135°15'1 2.9
2018-Jul-11 00:58N 34°41' E 135°17'0 0.0
2018-Jul-11 00:23N 34°41' E 135°17'0 0.0
2018-Jul-10 23:59N 34°41' E 135°17'0 0.0
2018-Jul-10 23:30N 34°41' E 135°17'0 0.7
2018-Jul-10 22:58N 34°41' E 135°16'0 0.0
2018-Jul-10 22:30N 34°41' E 135°16'0 0.0
2018-Jul-10 22:00N 34°41' E 135°16'0 0.0
2018-Jul-10 21:28N 34°41' E 135°16'1 2.4
2018-Jul-10 21:00N 34°40' E 135°15'5 9.1
2018-Jul-10 20:29N 34°37' E 135°11'510.7
2018-Jul-10 20:00N 34°35' E 135°05'25 9.9
2018-Jul-10 17:29N 34°28' E 134°36'27 0.8
2018-Jul-09 06:44N 34°37' E 135°07'311.1
2018-Jul-09 06:30N 34°37' E 135°10'5 9.6
2018-Jul-09 06:00N 34°39' E 135°15'2 3.9
2018-Jul-09 05:30N 34°41' E 135°17'0 0.5
2018-Jul-09 04:42N 34°41' E 135°16'0 0.0
2018-Jul-09 04:28N 34°41' E 135°16'0 0.0
2018-Jul-09 03:57N 34°41' E 135°16'0 0.0
2018-Jul-09 03:28N 34°41' E 135°16'0 0.1
2018-Jul-09 02:53N 34°41' E 135°16'0 0.5
2018-Jul-09 02:30N 34°41' E 135°16'2 3.6
2018-Jul-09 02:00N 34°39' E 135°15'0 0.0
2018-Jul-09 01:30N 34°39' E 135°15'1 2.0
2018-Jul-09 00:58N 34°40' E 135°15'2 2.6
2018-Jul-09 00:20N 34°41' E 135°17'0 0.6
2018-Jul-08 23:56N 34°41' E 135°17'2 3.6
2018-Jul-08 23:30N 34°40' E 135°15'3 6.3
2018-Jul-08 22:58N 34°38' E 135°12'3 5.5
2018-Jul-08 22:29N 34°40' E 135°11'0 0.0
2018-Jul-08 21:53N 34°40' E 135°11'0 0.0
2018-Jul-08 21:29N 34°40' E 135°11'0 0.0
2018-Jul-08 20:59N 34°40' E 135°11'0 0.0
2018-Jul-08 20:29N 34°40' E 135°11'0 0.0
2018-Jul-08 19:59N 34°40' E 135°11'0 0.0
2018-Jul-08 19:29N 34°40' E 135°11'0 0.0
2018-Jul-08 18:59N 34°40' E 135°11'0 0.0
2018-Jul-08 18:29N 34°40' E 135°11'0 0.0
2018-Jul-08 17:59N 34°40' E 135°11'0 0.0
2018-Jul-08 17:23N 34°40' E 135°11'0 0.0
2018-Jul-08 16:59N 34°40' E 135°11'0 0.0
2018-Jul-08 16:23N 34°40' E 135°11'0 0.0
2018-Jul-08 15:59N 34°40' E 135°11'0 0.0
2018-Jul-08 15:29N 34°40' E 135°11'0 0.0
2018-Jul-08 14:59N 34°40' E 135°11'0 0.0
2018-Jul-08 14:29N 34°40' E 135°11'0 0.0
2018-Jul-08 13:53N 34°40' E 135°11'0 0.0
2018-Jul-08 13:29N 34°40' E 135°11'0 0.0
2018-Jul-08 12:59N 34°40' E 135°11'0 0.0
2018-Jul-08 12:23N 34°40' E 135°11'0 0.0
2018-Jul-08 11:59N 34°40' E 135°11'0 0.0
2018-Jul-08 11:29N 34°40' E 135°11'0 0.0
2018-Jul-08 10:59N 34°40' E 135°11'0 0.0
2018-Jul-08 10:29N 34°40' E 135°11'0 0.0
2018-Jul-08 09:59N 34°40' E 135°11'0 0.0
2018-Jul-08 09:29N 34°40' E 135°11'0 0.0
2018-Jul-08 08:59N 34°40' E 135°11'0 0.0
2018-Jul-08 08:29N 34°40' E 135°11'0 0.0
2018-Jul-08 07:59N 34°40' E 135°11'0 0.0
2018-Jul-08 07:29N 34°40' E 135°11'0 0.0
2018-Jul-08 06:59N 34°40' E 135°11'0 0.9
2018-Jul-08 06:27N 34°39' E 135°11'510.3
2018-Jul-08 05:59N 34°36' E 135°08'4 8.9
2018-Jul-08 05:30N 34°36' E 135°02'13 9.4
2018-Jul-08 04:05N 34°31' E 134°47'211.5
2018-Jul-08 03:56N 34°31' E 134°45'  

Dump ship's entire track history